www.meteoamater.cz
Weather data: current pondl, 08.03.2021 22:00
Date Time Temperature Humidity Barometer Rain Wind Sunshine ET UV - Index Solar Dewpoint Wind chill Wind gust
08.03.2021 22:00 -5,9 C 77 % 1022,1 hPa 0,0 l/m2 0,0 km/h (0 Bft) 0 min 0,000 mm 0,0 UV-I 0 W/m2 -9,3 C -5,9 C 0,0 km/h (0 Bft)
08.03.2021 21:00 -5,0 C 74 % 1022,0 hPa 0,0 l/m2 0,0 km/h (0 Bft) 0 min 0,000 mm 0,0 UV-I 0 W/m2 -8,9 C -5,0 C 0,0 km/h (0 Bft)
08.03.2021 20:00 -3,8 C 69 % 1021,8 hPa 0,0 l/m2 0,0 km/h (0 Bft) 0 min 0,025 mm 0,0 UV-I 0 W/m2 -8,6 C -3,8 C 0,0 km/h (0 Bft)
08.03.2021 19:00 -3,1 C 65 % 1021,8 hPa 0,0 l/m2 0,0 km/h (0 Bft) 0 min 0,025 mm 0,0 UV-I 0 W/m2 -8,7 C -3,1 C 0,0 km/h (0 Bft)
08.03.2021 18:00 -1,7 C 58 % 1021,2 hPa 0,0 l/m2 0,0 km/h (0 Bft) 5 min 0,051 mm 0,0 UV-I 0 W/m2 -8,9 C -1,7 C 0,0 km/h (0 Bft)
08.03.2021 17:00 -0,4 C 55 % 1020,7 hPa 0,0 l/m2 1,1 km/h (1 Bft) 15 min 0,051 mm 0,0 UV-I 44 W/m2 -8,3 C -0,4 C 5,8 km/h (2 Bft)
08.03.2021 16:00 -0,6 C 57 % 1020,5 hPa 0,0 l/m2 1,2 km/h (1 Bft) 5 min 0,051 mm 0,7 UV-I 74 W/m2 -8,0 C -0,6 C 9,7 km/h (2 Bft)
08.03.2021 15:00 0,3 C 58 % 1020,4 hPa 0,0 l/m2 5,4 km/h (1 Bft) 45 min 0,127 mm 1,2 UV-I 314 W/m2 -7,0 C -1,4 C 21,2 km/h (4 Bft)
08.03.2021 14:00 0,4 C 58 % 1020,5 hPa 0,2 l/m2 4,5 km/h (1 Bft) 50 min 0,178 mm 1,9 UV-I 517 W/m2 -6,9 C 0,4 C 21,2 km/h (4 Bft)
08.03.2021 13:00 0,6 C 60 % 1020,4 hPa 0,0 l/m2 5,3 km/h (1 Bft) 45 min 0,178 mm 2,0 UV-I 559 W/m2 -6,3 C -1,0 C 13,5 km/h (3 Bft)
08.03.2021 12:00 -0,5 C 62 % 1020,4 hPa 0,0 l/m2 3,5 km/h (1 Bft) 55 min 0,178 mm 2,0 UV-I 320 W/m2 -6,9 C -0,5 C 13,5 km/h (3 Bft)
08.03.2021 11:00 -0,3 C 66 % 1020,0 hPa 0,2 l/m2 4,2 km/h (1 Bft) 45 min 0,127 mm 2,1 UV-I 590 W/m2 -5,9 C -0,3 C 36,7 km/h (5 Bft)
08.03.2021 10:00 -0,8 C 71 % 1019,7 hPa 0,0 l/m2 3,7 km/h (1 Bft) 30 min 0,101 mm 1,3 UV-I 274 W/m2 -5,4 C -0,8 C 15,4 km/h (3 Bft)
08.03.2021 09:00 -1,5 C 80 % 1019,2 hPa 0,0 l/m2 2,9 km/h (1 Bft) 5 min 0,026 mm 0,7 UV-I 276 W/m2 -4,5 C -1,5 C 11,6 km/h (2 Bft)
08.03.2021 08:00 -2,0 C 87 % 1018,7 hPa 0,0 l/m2 2,8 km/h (1 Bft) 0 min 0,025 mm 0,5 UV-I 72 W/m2 -3,9 C -2,0 C 9,7 km/h (2 Bft)
08.03.2021 07:00 -2,1 C 92 % 1017,7 hPa 0,0 l/m2 0,0 km/h (0 Bft) 0 min 0,000 mm 0,0 UV-I 19 W/m2 -3,2 C -2,1 C 1,9 km/h (1 Bft)
08.03.2021 06:00 -2,1 C 92 % 1017,4 hPa 0,0 l/m2 0,1 km/h (0 Bft) 0 min 0,000 mm 0,0 UV-I 0 W/m2 -3,2 C -2,1 C 1,9 km/h (1 Bft)
08.03.2021 05:00 -2,3 C 91 % 1017,1 hPa 0,0 l/m2 1,1 km/h (1 Bft) 0 min 0,000 mm 0,0 UV-I 0 W/m2 -3,6 C -2,3 C 7,7 km/h (2 Bft)
08.03.2021 04:00 -2,2 C 90 % 1017,0 hPa 0,0 l/m2 0,5 km/h (0 Bft) 0 min 0,000 mm 0,0 UV-I 0 W/m2 -3,6 C -2,2 C 3,9 km/h (1 Bft)
08.03.2021 03:00 -2,1 C 88 % 1017,1 hPa 0,0 l/m2 0,0 km/h (0 Bft) 0 min 0,000 mm 0,0 UV-I 0 W/m2 -3,8 C -2,1 C 0,0 km/h (0 Bft)
08.03.2021 02:00 -2,6 C 86 % 1017,3 hPa 0,0 l/m2 2,5 km/h (1 Bft) 0 min 0,000 mm 0,0 UV-I 0 W/m2 -4,6 C -2,6 C 15,4 km/h (3 Bft)
08.03.2021 01:00 -2,4 C 82 % 1017,5 hPa 0,0 l/m2 0,0 km/h (0 Bft) 0 min 0,000 mm 0,0 UV-I 0 W/m2 -5,0 C -2,4 C 0,0 km/h (0 Bft)
08.03.2021 00:00 -2,2 C 80 % 1017,6 hPa 0,0 l/m2 0,1 km/h (0 Bft) 0 min 0,000 mm 0,0 UV-I 0 W/m2 -5,2 C -2,2 C 3,9 km/h (1 Bft)
07.03.2021 23:00 -2,3 C 78 % 1017,7 hPa 0,0 l/m2 0,0 km/h (0 Bft) 0 min 0,000 mm 0,0 UV-I 0 W/m2 -5,6 C -2,3 C 1,9 km/h (1 Bft)
_ Min-Time 22:00 15:15 03:20 - 22:00 - - - - 22:00 22:00 22:00
Minimum _ -5,9 C 53 % 1016,8 hPa - 0,0 km/h (0 Bft) - - - - -9,3 C -5,9 C 0,0 km/h (0 Bft)
_ Max-Time 14:15 07:10 21:55 13:05 11:55 17:40 13:00 12:40 12:55 07:05 14:15 11:05
Maximum _ 0,9 C 92 % 1022,2 hPa 0,2 l/m2 9,4 km/h
N-NW (2 Bft)
5 min 0,178 mm 2,4 UV-I 685 W/m2 -3,2 C 0,9 C 38,6 km/h
E-SE (5 Bft)
Average _ -1,8 C 74 % 1019,3 hPa #0,4 l/m2 1,9 km/h (1 Bft) #5:00 h #1,041 mm 1,4 UV-I 245 W/m2 -6,0 C -2,1 C 8,8 km/h (2 Bft)
©2007-2021 Meteoamater.cz